Latest Weather Observations for Minlaton Airport

IDS60801

Issued at 11:01 am CST Saturday 29 April 2017 (issued every 30 minutes, with the page automatically refreshed every 10 minutes)

About weather observations | Map of weather stations | Latest weather observations for SA | Other Formats
Station Details ID: 022031 Name: MINLATON AERO Lat: -34.75 Lon: 137.53 Height: 32.0 m
Data from the previous 72 hours. | See also: Recent months at Minlaton Airport
Date/Time
CST
Temp
°C
App
Temp
°C
Dew
Point
°C
Rel
Hum
%
Delta-T
°C
Wind Press
QNH
hPa
Press
MSL
hPa
Rain since
9am
mm
Dir  Spd
km/h
Gust
km/h
Spd
kts
Gust
kts
29/11:00am 18.1 16.7 9.5 57 4.5 WNW 7 11 4 6 1026.9 1026.9 0.0
29/10:30am 17.7 16.6 10.1 61 4.0 ESE 6 9 3 5 1026.9 1026.9 0.0
29/10:00am 17.1 15.3 10.7 66 3.4 N 11 15 6 8 1027.0 1027.0 0.0
29/09:30am 16.2 14.4 10.9 71 2.8 N 11 15 6 8 1027.1 1027.1 0.0
29/09:00am 15.4 13.6 12.0 80 1.8 N 13 15 7 8 1027.0 1027.0 0.0
29/08:30am 14.8 13.1 12.3 85 1.4 N 13 15 7 8 1026.8 1026.8 0.0
29/08:00am 14.2 13.2 12.4 89 1.0 NE 9 13 5 7 1026.6 1026.6 0.0
29/07:30am 13.5 12.1 12.1 91 0.7 NNE 11 13 6 7 1026.4 1026.4 0.0
29/07:00am 13.2 12.1 11.9 92 0.7 NNE 9 11 5 6 1026.2 1026.2 0.0
29/06:30am 13.2 12.1 11.9 92 0.7 N 9 11 5 6 1025.9 1025.9 0.0
29/06:00am 13.2 12.1 11.9 92 0.7 N 9 11 5 6 1025.8 1025.8 0.0
29/05:30am 13.3 12.2 11.9 91 0.7 N 9 13 5 7 1025.7 1025.7 0.0
29/05:00am 13.4 12.6 11.8 90 0.9 NE 7 9 4 5 1025.5 1025.5 0.0
29/04:30am 13.4 12.3 12.0 91 0.7 NNE 9 13 5 7 1025.4 1025.4 0.0
29/04:00am 13.2 12.1 11.8 91 0.7 NNE 9 11 5 6 1025.3 1025.3 0.0
29/03:30am 13.3 12.6 11.9 91 0.7 ENE 7 9 4 5 1025.5 1025.5 0.0
29/03:00am 13.3 12.6 11.9 91 0.7 N 7 11 4 6 1025.7 1025.7 0.0
29/02:30am 12.8 11.1 11.2 90 0.8 NNW 11 13 6 7 1026.0 1026.0 0.0
29/02:00am 13.2 12.8 11.1 87 1.1 ESE 4 6 2 3 1025.9 1025.9 0.0
29/01:30am 13.2 12.2 11.1 87 1.1 SE 7 7 4 4 1025.9 1025.9 0.0
29/01:00am 13.7 12.4 11.4 86 1.2 SW 9 13 5 7 1026.2 1026.2 0.0
29/12:30am 13.7 14.1 11.4 86 1.2 CALM 0 6 0 3 1026.2 1026.2 0.0
29/12:00am 13.9 14.3 11.4 85 1.3 CALM 0 0 0 0 1026.5 1026.5 0.0
 
Date/Time
CST
Temp
°C
App
Temp
°C
Dew
Point
°C
Rel
Hum
%
Delta-T
°C
Wind Press
QNH
hPa
Press
MSL
hPa
Rain since
9am
mm
Dir  Spd
km/h
Gust
km/h
Spd
kts
Gust
kts
28/11:30pm 14.0 14.5 11.7 86 1.2 CALM 0 0 0 0 1026.7 1026.7 0.0
28/11:00pm 14.0 14.5 11.5 85 1.3 CALM 0 0 0 0 1026.9 1026.9 0.0
28/10:30pm 14.0 13.8 11.7 86 1.2 SE 4 7 2 4 1027.1 1027.1 0.0
28/10:00pm 14.0 13.2 11.7 86 1.2 SE 7 7 4 4 1027.2 1027.2 0.0
28/09:30pm 14.2 13.0 11.7 85 1.3 S 9 11 5 6 1027.3 1027.3 0.0
28/09:00pm 14.1 13.0 11.8 86 1.2 S 9 11 5 6 1027.3 1027.3 0.0
28/08:30pm 14.2 13.7 12.1 87 1.1 S 6 7 3 4 1027.1 1027.1 0.0
28/08:00pm 14.3 13.8 12.2 87 1.1 S 6 7 3 4 1027.1 1027.1 0.0
28/07:30pm 14.4 13.7 12.1 86 1.2 SSE 7 9 4 5 1027.0 1027.0 0.0
28/07:00pm 14.6 12.9 12.3 86 1.3 SSE 13 15 7 8 1027.0 1027.0 0.0
28/06:30pm 15.2 13.0 12.2 82 1.6 SSW 15 19 8 10 1026.9 1026.9 0.0
28/06:00pm 15.8 14.0 12.0 78 2.1 SSW 13 19 7 10 1026.8 1026.8 0.0
28/05:30pm 16.2 13.3 12.2 77 2.2 WSW 19 22 10 12 1026.6 1026.6 0.0
28/05:00pm 16.3 13.4 12.3 77 2.2 W 19 24 10 13 1026.6 1026.6 0.0
28/04:30pm 16.5 13.0 12.3 76 2.3 W 22 26 12 14 1026.6 1026.6 0.0
28/04:00pm 16.9 13.7 11.8 72 2.8 W 20 26 11 14 1026.7 1026.7 0.0
28/03:30pm 16.3 13.9 12.7 79 2.0 WSW 17 20 9 11 1026.8 1026.8 0.0
28/03:00pm 16.4 13.6 12.6 78 2.1 WSW 19 35 10 19 1026.8 1026.8 0.0
28/02:30pm 17.7 14.8 12.8 73 2.7 S 20 26 11 14 1026.9 1026.9 0.0
28/02:20pm 15.9 12.5 13.7 87 1.2 SSW 24 30 13 16 1027.0 1027.0 0.0
28/02:00pm 17.0 11.0 12.1 73 2.7 WSW 35 44 19 24 1027.0 1027.0 0.0
28/01:57pm 17.6 12.4 11.6 68 3.3 WSW 30 41 16 22 1027.0 1027.0 0.0
28/01:30pm 19.4 16.0 11.4 60 4.4 W 20 28 11 15 1027.2 1027.2 0.0
28/01:00pm 18.6 15.2 11.2 62 4.0 WSW 20 30 11 16 1027.6 1027.6 0.0
28/12:30pm 18.7 15.9 10.0 57 4.6 WNW 15 19 8 10 1027.8 1027.8 0.0
28/12:00pm 18.5 15.6 11.1 62 4.0 WSW 17 22 9 12 1028.4 1028.3 0.0
28/11:30am 17.7 15.3 10.1 61 4.0 SSW 13 17 7 9 1028.8 1028.7 0.0
28/11:00am 17.3 13.4 10.9 66 3.4 WSW 22 30 12 16 1029.1 1029.0 0.0
28/10:30am 16.5 11.6 12.5 77 2.2 WSW 30 37 16 20 1029.0 1028.9 0.0
28/10:00am 17.5 14.1 11.1 66 3.5 WSW 20 26 11 14 1028.8 1028.7 0.0
28/09:30am 16.2 13.3 12.4 78 2.1 WSW 19 24 10 13 1028.8 1028.7 0.0
28/09:00am 14.7 14.6 13.2 91 0.8 S 6 11 3 6 1028.8 1028.7 0.0
28/08:30am 14.3 14.1 13.5 95 0.4 NNE 7 9 4 5 1028.5 1028.4 0.0
28/08:00am 13.1 12.6 12.5 96 0.3 NNE 7 9 4 5 1028.4 1028.3 0.0
28/07:30am 11.7 10.4 11.1 96 0.3 NNE 9 11 5 6 1028.0 1028.0 0.0
28/07:00am 9.9 9.8 9.3 96 0.3 CALM 0 6 0 3 1027.8 1027.8 0.0
28/06:30am 9.5 8.1 8.7 95 0.4 ENE 6 9 3 5 1027.6 1027.6 0.0
28/06:00am 10.0 8.1 9.2 95 0.4 NE 9 11 5 6 1027.7 1027.7 0.0
28/05:30am 9.7 7.3 8.8 94 0.4 NE 11 13 6 7 1027.5 1027.5 0.0
28/05:00am 9.8 7.1 8.9 94 0.4 NNE 13 13 7 7 1027.3 1027.3 0.0
28/04:30am 9.8 7.4 8.7 93 0.5 NNE 11 13 6 7 1027.1 1027.1 0.0
28/04:00am 10.4 8.6 9.3 93 0.5 NE 9 9 5 5 1027.0 1027.0 0.0
28/03:30am 10.9 8.8 9.8 93 0.6 NE 11 13 6 7 1027.1 1027.1 0.0
28/03:00am 11.4 11.5 10.3 93 0.6 CALM 0 0 0 0 1027.3 1027.3 0.0
28/02:30am 11.4 11.5 10.3 93 0.6 CALM 0 0 0 0 1027.6 1027.6 0.0
28/02:00am 10.7 10.6 9.5 92 0.6 CALM 0 0 0 0 1027.6 1027.6 0.0
28/01:30am 11.1 11.1 9.9 92 0.6 CALM 0 4 0 2 1027.5 1027.5 0.0
28/01:00am 10.4 10.2 9.0 91 0.7 CALM 0 9 0 5 1027.6 1027.6 0.0
28/12:30am 10.9 8.7 9.5 91 0.7 E 11 13 6 7 1027.7 1027.7 0.0
28/12:00am 10.7 8.9 9.5 92 0.6 ESE 9 13 5 7 1027.8 1027.8 0.0
 
Date/Time
CST
Temp
°C
App
Temp
°C
Dew
Point
°C
Rel
Hum
%
Delta-T
°C
Wind Press
QNH
hPa
Press
MSL
hPa
Rain since
9am
mm
Dir  Spd
km/h
Gust
km/h
Spd
kts
Gust
kts
27/11:30pm 10.5 9.0 9.3 92 0.6 E 7 9 4 5 1028.0 1028.0 0.0
27/11:00pm 9.9 9.6 8.5 91 0.7 CALM 0 6 0 3 1028.2 1028.2 0.0
27/10:30pm 9.7 9.2 7.8 88 0.9 CALM 0 0 0 0 1028.2 1028.2 0.0
27/10:00pm 11.5 11.3 9.2 86 1.2 CALM 0 4 0 2 1028.1 1028.1 0.0
27/09:30pm 11.1 10.6 9.4 89 0.8 SSW 2 7 1 4 1028.0 1028.0 0.0
27/09:00pm 10.6 9.9 8.5 87 1.0 SSE 2 6 1 3 1028.0 1028.0 0.0
27/08:30pm 11.4 10.0 8.8 84 1.3 SSE 6 7 3 4 1028.0 1028.0 0.0
27/08:00pm 11.7 10.3 9.6 87 1.1 S 7 7 4 4 1028.0 1028.0 0.0
27/07:30pm 11.7 10.4 9.1 84 1.3 SSE 6 7 3 4 1027.8 1027.8 0.0
27/07:00pm 12.7 11.4 9.9 83 1.4 S 7 9 4 5 1027.8 1027.8 0.0
27/06:30pm 13.3 11.6 9.9 80 1.7 S 9 13 5 7 1027.6 1027.6 0.0
27/06:00pm 13.3 10.0 9.4 77 2.0 SSW 17 20 9 11 1027.3 1027.3 0.0
27/05:30pm 14.0 10.9 10.2 78 2.0 SW 17 22 9 12 1027.4 1027.4 0.0
27/05:00pm 15.5 13.6 9.2 66 3.2 S 9 13 5 7 1027.2 1027.2 0.0
27/04:30pm 16.5 13.1 9.2 62 3.8 SW 17 22 9 12 1027.1 1027.1 0.0
27/04:00pm 16.7 13.6 8.9 60 4.0 SW 15 20 8 11 1027.1 1027.1 0.0
27/03:30pm 15.8 11.1 9.2 65 3.4 WSW 24 32 13 17 1027.1 1027.1 0.0
27/03:00pm 17.0 12.5 8.4 57 4.4 WSW 22 30 12 16 1027.0 1027.0 0.0
27/02:30pm 16.3 12.2 8.5 60 4.0 W 20 26 11 14 1027.0 1027.0 0.0
27/02:00pm 16.6 13.0 8.3 58 4.2 W 17 24 9 13 1026.9 1026.9 0.0
27/01:30pm 18.0 13.9 7.7 51 5.2 WNW 19 26 10 14 1027.0 1027.0 0.0
27/01:00pm 16.5 12.0 6.9 53 4.7 W 20 26 11 14 1027.2 1027.2 0.0
27/12:30pm 18.5 14.2 7.0 47 5.7 SW 19 26 10 14 1027.8 1027.8 0.0
27/12:00pm 17.5 13.6 7.0 50 5.2 SSE 17 26 9 14 1028.2 1028.2 0.0
27/11:30am 15.4 11.6 8.9 65 3.3 S 19 26 10 14 1028.7 1028.6 0.0
27/11:00am 16.4 12.1 7.9 57 4.3 SW 20 28 11 15 1028.9 1028.8 0.0
27/10:30am 17.0 12.5 6.2 49 5.2 SW 19 24 10 13 1029.2 1029.1 0.0
27/10:00am 15.7 10.8 7.0 56 4.3 SW 22 28 12 15 1029.4 1029.3 0.0
27/09:30am 15.6 12.5 8.8 64 3.4 SW 15 20 8 11 1029.4 1029.3 0.0
27/09:00am 14.5 12.3 7.8 64 3.3 SW 9 13 5 7 1029.2 1029.1 0.0
27/08:30am 13.3 12.0 7.5 68 2.8 SSW 4 7 2 4 1029.0 1028.9 0.0
27/08:00am 11.4 9.9 9.3 87 1.1 SE 7 9 4 5 1028.5 1028.4 0.0
27/07:30am 10.0 8.2 7.9 87 1.0 SSE 7 9 4 5 1028.1 1028.1 0.0
27/07:00am 8.7 6.7 6.3 85 1.1 SE 6 7 3 4 1027.9 1027.9 0.0
27/06:30am 9.4 7.0 7.0 85 1.1 SE 9 11 5 6 1027.7 1027.7 0.0
27/06:00am 10.5 6.7 7.4 81 1.5 SE 17 19 9 10 1027.5 1027.5 0.0
27/05:30am 10.3 7.3 7.5 83 1.3 SSE 13 17 7 9 1027.2 1027.2 0.0
27/05:00am 9.7 6.9 6.8 82 1.4 SSE 11 13 6 7 1026.8 1026.8 0.0
27/04:30am 8.0 4.8 4.9 81 1.4 SSE 11 13 6 7 1026.7 1026.7 0.0
27/04:00am 7.4 3.6 4.0 79 1.5 SSE 13 13 7 7 1026.5 1026.5 0.0
27/03:30am 6.9 3.4 3.7 80 1.4 SSE 11 13 6 7 1026.4 1026.4 0.0
27/03:00am 6.8 3.2 3.1 77 1.5 S 11 13 6 7 1026.6 1026.6 0.0
27/02:30am 6.4 2.4 3.0 79 1.4 SSE 13 15 7 8 1026.7 1026.7 0.0
27/02:00am 7.9 4.1 3.9 76 1.7 S 13 13 7 7 1026.9 1026.9 0.0
27/01:30am 7.6 3.9 4.2 79 1.5 SSE 13 15 7 8 1026.8 1026.8 0.0
27/01:00am 7.9 4.3 5.0 82 1.3 SSE 13 15 7 8 1026.8 1026.8 0.0
27/12:30am 7.1 3.4 4.6 84 1.1 SSE 13 15 7 8 1026.7 1026.7 0.0
27/12:00am 7.6 3.5 4.6 81 1.3 SSE 15 17 8 9 1026.6 1026.6 0.0
 
Date/Time
CST
Temp
°C
App
Temp
°C
Dew
Point
°C
Rel
Hum
%
Delta-T
°C
Wind Press
QNH
hPa
Press
MSL
hPa
Rain since
9am
mm
Dir  Spd
km/h
Gust
km/h
Spd
kts
Gust
kts
26/11:30pm 8.0 4.6 6.0 87 0.9 S 13 15 7 8 1026.5 1026.5 0.0
26/11:00pm 7.7 5.4 5.5 86 1.0 S 7 9 4 5 1026.5 1026.5 0.0
26/10:30pm 8.5 6.2 5.8 83 1.2 SSW 7 9 4 5 1026.5 1026.5 0.0
26/10:00pm 9.2 6.6 5.9 80 1.5 S 9 11 5 6 1026.5 1026.5 0.0
26/09:30pm 9.6 6.7 6.3 80 1.5 SSE 11 13 6 7 1026.3 1026.3 0.0
26/09:00pm 9.9 7.1 6.8 81 1.4 SSE 11 13 6 7 1026.2 1026.2 0.0
26/08:30pm 11.1 6.9 7.4 78 1.8 S 19 28 10 15 1026.0 1026.0 0.0
26/08:00pm 9.8 6.5 6.2 78 1.7 S 13 15 7 8 1025.7 1025.7 0.0
26/07:30pm 9.7 6.2 5.5 75 1.9 S 13 15 7 8 1025.5 1025.5 0.0
26/07:00pm 10.6 7.1 5.4 70 2.4 S 13 15 7 8 1025.1 1025.1 0.0
26/06:30pm 11.7 7.8 5.3 65 2.9 SSW 15 19 8 10 1024.8 1024.8 0.0
26/06:00pm 12.5 7.8 5.0 60 3.4 S 19 20 10 11 1024.5 1024.5 0.0
26/05:30pm 13.5 7.7 4.4 54 4.2 S 24 28 13 15 1024.4 1024.4 0.0
26/05:00pm 13.6 8.7 5.0 56 4.0 S 20 26 11 14 1024.1 1024.1 0.0
26/04:30pm 14.3 8.6 4.9 53 4.4 S 24 33 13 18 1023.8 1023.8 0.0
26/04:00pm 14.7 7.4 2.6 44 5.4 S 30 39 16 21 1023.7 1023.7 0.0
26/03:30pm 16.0 9.3 3.4 43 5.7 S 28 37 15 20 1023.4 1023.4 0.0
26/03:00pm 15.9 10.0 3.7 44 5.6 S 24 33 13 18 1023.4 1023.4 0.0
26/02:30pm 15.0 7.6 3.8 47 5.1 S 32 41 17 22 1023.3 1023.3 0.0
26/02:00pm 16.6 11.0 5.3 47 5.4 SSW 24 33 13 18 1023.3 1023.3 0.0
26/01:30pm 14.6 6.6 5.7 55 4.2 SSW 37 46 20 25 1023.6 1023.6 0.0
26/01:00pm 15.3 10.1 5.5 52 4.7 S 22 32 12 17 1023.3 1023.3 0.0
26/12:33pm 14.4 7.1 5.5 55 4.2 S 33 52 18 28 1022.9 1022.9 0.0
26/12:30pm 15.4 8.1 4.5 48 5.1 S 32 43 17 23 1022.9 1022.9 0.0
26/12:00pm 14.4 7.3 5.5 55 4.2 SSW 32 43 17 23 1023.1 1023.1 0.0
26/11:30am 15.5 8.4 3.6 45 5.4 S 30 39 16 21 1023.1 1023.1 0.0

Other Formats:

Comma delimited format used in spreadsheet applications
http://www.bom.gov.au/fwo/IDS60801/IDS60801.95659.axf

JavaScript Object Notation format (JSON) in row-major order
http://www.bom.gov.au/fwo/IDS60801/IDS60801.95659.json